Time;durP1;ratioP1;P1;durP2;ratioP2;P2;SDS_P1;SDS_P2;PMS_P1;PMS_P2;Temp;Humidity;BMP_temperature;BMP_pressure;BME280_temperature;BME280_humidity;BME280_pressure;Samples;Min_cycle;Max_cycle;Signal;HPM_P1;HPM_P2
2023/08/03 00:00:13;;;;;;;6.83;1.87;;;17.20;1.00;;;;;;5119806;28;20187;-44
2023/08/03 00:02:39;;;;;;;7.47;3.10;;;17.20;99.90;;;;;;5118356;28;20264;-45
2023/08/03 00:05:05;;;;;;;9.53;2.27;;;17.20;1.00;;;;;;5119543;28;20172;-45
2023/08/03 00:07:32;;;;;;;4.13;2.20;;;17.20;99.90;;;;;;5117815;28;20188;-46
2023/08/03 00:09:58;;;;;;;6.73;2.17;;;17.20;1.00;;;;;;5117968;28;20421;-45
2023/08/03 00:12:23;;;;;;;10.00;2.33;;;17.20;1.00;;;;;;5117318;28;20493;-45
2023/08/03 00:14:50;;;;;;;8.50;2.37;;;17.10;1.00;;;;;;5116849;28;20472;-44
2023/08/03 00:17:15;;;;;;;10.17;2.20;;;17.10;99.90;;;;;;5116303;28;20188;-46
2023/08/03 00:19:41;;;;;;;8.23;2.57;;;17.10;99.90;;;;;;5116036;28;20428;-44
2023/08/03 00:22:08;;;;;;;6.13;2.80;;;17.10;99.90;;;;;;5115008;28;20190;-45
2023/08/03 00:24:34;;;;;;;6.50;2.23;;;17.20;99.90;;;;;;5116045;28;20514;-46
2023/08/03 00:26:59;;;;;;;6.87;2.27;;;17.20;99.90;;;;;;5116637;28;20418;-46
2023/08/03 00:29:25;;;;;;;5.27;2.07;;;17.20;99.90;;;;;;5118433;28;20198;-45
2023/08/03 00:31:50;;;;;;;6.53;2.30;;;17.40;99.90;;;;;;5117707;28;20176;-46
2023/08/03 00:34:16;;;;;;;5.53;1.90;;;17.30;99.90;;;;;;5115314;28;20194;-44
2023/08/03 00:36:41;;;;;;;6.70;2.47;;;17.40;99.90;;;;;;5116031;28;20283;-44
2023/08/03 00:39:07;;;;;;;7.13;2.30;;;17.40;99.90;;;;;;5116237;28;20276;-46
2023/08/03 00:41:33;;;;;;;3.97;2.13;;;17.40;80.80;;;;;;5117993;28;20171;-46
2023/08/03 00:43:58;;;;;;;8.40;2.53;;;17.40;1.00;;;;;;5117768;28;20215;-44
2023/08/03 00:46:24;;;;;;;6.43;2.20;;;17.50;1.00;;;;;;5115629;28;20195;-44
2023/08/03 00:48:50;;;;;;;4.60;2.13;;;17.50;14.60;;;;;;5115617;28;20194;-46
2023/08/03 00:51:15;;;;;;;7.40;2.57;;;17.50;1.00;;;;;;5115624;28;20569;-46
2023/08/03 00:53:44;;;;;;;5.60;2.30;;;17.40;99.90;;;;;;5114641;28;20214;-43
2023/08/03 00:56:09;;;;;;;6.23;2.43;;;17.30;99.90;;;;;;5115312;28;20183;-45
2023/08/03 00:58:35;;;;;;;9.93;2.90;;;17.30;99.90;;;;;;5114310;28;20429;-44
2023/08/03 01:01:01;;;;;;;7.87;2.60;;;17.30;99.90;;;;;;5113765;28;20546;-46
2023/08/03 01:03:26;;;;;;;6.83;2.30;;;17.20;99.90;;;;;;5116596;28;20508;-44
2023/08/03 01:05:52;;;;;;;5.37;3.10;;;17.20;1.00;;;;;;5099028;28;20172;-47
2023/08/03 01:08:18;;;;;;;5.87;2.40;;;17.20;99.90;;;;;;5118490;28;20270;-45
2023/08/03 01:10:43;;;;;;;7.07;2.17;;;17.10;1.00;;;;;;5117861;28;20601;-45
2023/08/03 01:13:09;;;;;;;5.80;2.07;;;17.20;1.00;;;;;;5099921;28;20282;-44
2023/08/03 01:15:35;;;;;;;7.63;2.37;;;17.20;99.90;;;;;;5116979;28;20191;-45
2023/08/03 01:18:00;;;;;;;5.43;2.53;;;17.20;99.90;;;;;;5118658;28;20180;-45
2023/08/03 01:20:26;;;;;;;7.60;2.17;;;17.20;99.90;;;;;;5118726;28;20175;-45
2023/08/03 01:22:52;;;;;;;9.57;2.40;;;17.20;72.10;;;;;;5118732;28;20519;-45
2023/08/03 01:25:17;;;;;;;13.13;3.43;;;17.20;1.00;;;;;;5116634;28;20830;-44
2023/08/03 01:27:47;;;;;;;10.17;2.10;;;17.30;1.00;;;;;;5117148;28;20473;-45
2023/08/03 01:30:12;;;;;;;7.60;3.03;;;17.30;1.00;;;;;;5118060;28;20238;-47
2023/08/03 01:32:38;;;;;;;7.53;3.20;;;17.20;1.00;;;;;;5117655;28;20439;-44
2023/08/03 01:35:06;;;;;;;10.50;2.27;;;17.30;1.00;;;;;;5116488;28;20594;-46
2023/08/03 01:37:34;;;;;;;7.10;2.07;;;17.30;99.90;;;;;;5116499;28;20431;-45
2023/08/03 01:40:00;;;;;;;5.53;2.10;;;17.30;99.90;;;;;;5098754;28;20434;-47
2023/08/03 01:42:25;;;;;;;4.80;2.57;;;17.30;1.00;;;;;;5116732;28;20754;-45
2023/08/03 01:44:51;;;;;;;5.17;1.63;;;17.20;1.00;;;;;;5116101;28;20620;-45
2023/08/03 01:47:16;;;;;;;4.43;2.07;;;17.20;1.00;;;;;;5115246;28;20172;-46
2023/08/03 01:49:42;;;;;;;8.00;2.40;;;17.20;99.90;;;;;;5114427;28;20184;-44
2023/08/03 01:52:08;;;;;;;6.33;2.17;;;17.20;99.90;;;;;;5114292;28;20261;-44
2023/08/03 01:54:33;;;;;;;3.60;1.57;;;17.10;99.90;;;;;;5113190;28;20183;-46
2023/08/03 01:56:59;;;;;;;5.93;2.00;;;17.10;99.90;;;;;;5113248;28;20646;-46
2023/08/03 01:59:24;;;;;;;4.10;1.63;;;17.10;99.90;;;;;;5113878;28;20255;-46
2023/08/03 02:01:50;;;;;;;6.33;2.07;;;17.10;99.90;;;;;;5113810;28;20188;-45
2023/08/03 02:04:15;;;;;;;5.90;1.90;;;17.10;99.90;;;;;;5115572;28;20302;-46
2023/08/03 02:06:44;;;;;;;4.10;1.53;;;17.10;99.90;;;;;;5115606;28;20290;-46
2023/08/03 02:09:10;;;;;;;6.20;2.10;;;17.00;99.90;;;;;;5115915;28;20264;-49
2023/08/03 02:11:36;;;;;;;6.07;2.20;;;17.10;99.90;;;;;;5116196;28;20417;-47
2023/08/03 02:14:02;;;;;;;4.90;1.63;;;17.00;99.90;;;;;;5116655;28;20270;-44
2023/08/03 02:16:28;;;;;;;6.73;1.80;;;16.90;1.00;;;;;;5116764;28;20241;-45
2023/08/03 02:18:53;;;;;;;6.63;2.20;;;17.00;99.90;;;;;;5115764;28;20441;-44
2023/08/03 02:21:19;;;;;;;6.40;2.60;;;16.90;1.00;;;;;;5113100;28;20211;-45
2023/08/03 02:23:45;;;;;;;5.50;1.70;;;16.80;1.00;;;;;;5114382;28;20486;-47
2023/08/03 02:26:10;;;;;;;6.00;2.20;;;16.80;1.90;;;;;;5113045;28;20195;-46
2023/08/03 02:28:36;;;;;;;6.97;2.00;;;16.70;99.90;;;;;;5114485;28;20215;-46
2023/08/03 02:31:10;;;;;;;7.83;2.20;;;16.80;99.90;;;;;;5116698;28;20180;-44
2023/08/03 02:33:36;;;;;;;9.47;2.00;;;16.70;99.90;;;;;;5093848;28;20239;-46
2023/08/03 02:36:01;;;;;;;6.60;1.87;;;16.80;99.90;;;;;;5114150;28;20448;-43
2023/08/03 02:38:27;;;;;;;4.63;1.47;;;16.70;46.70;;;;;;5115580;28;20245;-45
2023/08/03 02:40:54;;;;;;;6.60;2.13;;;16.70;99.90;;;;;;5115411;28;20211;-49
2023/08/03 02:43:20;;;;;;;5.50;1.77;;;16.70;99.90;;;;;;5115921;28;20515;-47
2023/08/03 02:45:45;;;;;;;8.30;2.53;;;16.60;99.90;;;;;;5115765;28;20588;-47
2023/08/03 02:48:11;;;;;;;7.00;1.93;;;16.60;99.90;;;;;;5116261;28;20184;-47
2023/08/03 02:50:36;;;;;;;7.60;2.43;;;16.60;99.90;;;;;;5116651;28;20180;-49
2023/08/03 02:53:02;;;;;;;8.70;2.30;;;16.60;99.90;;;;;;5114986;28;20245;-46
2023/08/03 02:55:27;;;;;;;4.97;1.80;;;16.50;99.90;;;;;;5115928;28;20191;-44
2023/08/03 02:57:53;;;;;;;7.30;1.93;;;16.50;99.90;;;;;;5115400;28;20176;-45
2023/08/03 03:00:20;;;;;;;5.73;2.73;;;16.50;99.90;;;;;;5114357;28;20400;-44
2023/08/03 03:02:45;;;;;;;8.43;2.00;;;16.50;99.90;;;;;;5115664;28;20526;-44
2023/08/03 03:05:11;;;;;;;6.10;2.43;;;16.50;1.00;;;;;;5115082;28;20748;-45
2023/08/03 03:07:37;;;;;;;6.03;1.90;;;16.40;1.00;;;;;;5114746;28;20188;-48
2023/08/03 03:10:02;;;;;;;7.10;1.90;;;16.40;1.00;;;;;;5115342;28;20539;-46
2023/08/03 03:12:28;;;;;;;9.80;2.40;;;16.40;1.00;;;;;;5115555;28;20270;-47
2023/08/03 03:14:53;;;;;;;4.93;1.77;;;16.40;1.00;;;;;;5116518;28;20280;-44
2023/08/03 03:17:19;;;;;;;8.70;2.33;;;16.40;1.00;;;;;;5116202;28;20187;-43
2023/08/03 03:19:45;;;;;;;4.53;1.83;;;16.40;1.00;;;;;;5117149;28;20287;-43
2023/08/03 03:22:11;;;;;;;7.60;2.33;;;16.40;1.00;;;;;;5118642;28;20481;-48
2023/08/03 03:24:36;;;;;;;10.50;2.50;;;16.40;99.90;;;;;;5117829;28;20215;-44
2023/08/03 03:27:02;;;;;;;7.60;2.10;;;16.40;99.90;;;;;;5118560;28;20425;-43
2023/08/03 03:29:28;;;;;;;5.70;1.93;;;16.30;1.00;;;;;;5119488;28;20290;-44
2023/08/03 03:31:53;;;;;;;5.67;2.30;;;16.30;1.00;;;;;;5118527;28;20585;-45
2023/08/03 03:34:19;;;;;;;8.50;2.43;;;16.30;1.00;;;;;;5117753;28;20207;-44
2023/08/03 03:36:44;;;;;;;8.30;2.20;;;16.30;1.00;;;;;;5118116;28;20175;-46
2023/08/03 03:39:10;;;;;;;8.60;2.03;;;16.30;1.00;;;;;;5117973;28;20554;-45
2023/08/03 03:41:36;;;;;;;12.10;2.83;;;16.20;1.00;;;;;;5099599;28;20468;-44
2023/08/03 03:44:01;;;;;;;8.10;2.60;;;16.20;1.00;;;;;;5118089;28;20215;-43
2023/08/03 03:46:27;;;;;;;4.60;1.53;;;16.20;1.00;;;;;;5119212;28;20176;-45
2023/08/03 03:48:52;;;;;;;6.40;1.97;;;16.20;1.00;;;;;;5118374;28;20253;-44
2023/08/03 03:51:20;;;;;;;9.40;3.70;;;16.10;1.00;;;;;;5119413;28;20184;-44
2023/08/03 03:53:45;;;;;;;4.40;1.63;;;16.10;99.90;;;;;;5117948;28;20191;-47
2023/08/03 03:56:11;;;;;;;6.70;1.70;;;16.10;99.90;;;;;;5101405;28;20429;-44
2023/08/03 03:58:36;;;;;;;4.10;1.40;;;16.10;92.40;;;;;;5117625;28;20253;-43
2023/08/03 04:01:02;;;;;;;7.67;2.03;;;16.10;99.90;;;;;;5118464;28;20207;-46
2023/08/03 04:03:27;;;;;;;4.20;1.47;;;16.10;36.10;;;;;;5119626;28;20569;-43
2023/08/03 04:05:53;;;;;;;5.97;2.03;;;16.10;28.30;;;;;;5119298;28;20180;-43
2023/08/03 04:08:19;;;;;;;3.40;1.60;;;16.10;1.00;;;;;;5117590;28;20244;-47
2023/08/03 04:10:44;;;;;;;7.47;1.97;;;16.10;1.00;;;;;;5116132;28;20955;-44
2023/08/03 04:13:10;;;;;;;8.77;1.83;;;16.10;1.00;;;;;;5116667;28;20614;-45
2023/08/03 04:15:36;;;;;;;4.80;1.40;;;16.10;99.90;;;;;;5115578;28;20450;-46
2023/08/03 04:18:01;;;;;;;4.60;1.67;;;16.10;99.90;;;;;;5115382;28;20168;-43
2023/08/03 04:20:27;;;;;;;2.37;1.00;;;16.10;18.90;;;;;;5115696;28;20341;-43
2023/08/03 04:22:52;;;;;;;7.67;1.37;;;16.10;1.00;;;;;;5116841;28;20175;-44
2023/08/03 04:25:18;;;;;;;10.90;1.60;;;16.10;1.00;;;;;;5116949;28;20199;-44
2023/08/03 04:27:44;;;;;;;3.50;1.13;;;16.10;99.90;;;;;;5116602;28;20207;-47
2023/08/03 04:30:11;;;;;;;4.00;1.40;;;16.10;99.90;;;;;;5115905;28;20333;-42
2023/08/03 04:32:37;;;;;;;5.70;1.10;;;16.20;99.90;;;;;;5117518;28;20256;-48
2023/08/03 04:35:03;;;;;;;6.17;1.87;;;16.20;99.90;;;;;;5114172;28;20505;-45
2023/08/03 04:37:29;;;;;;;2.20;1.13;;;16.10;1.00;;;;;;5114775;28;20724;-43
2023/08/03 04:39:55;;;;;;;3.10;1.00;;;16.10;1.00;;;;;;5115073;28;20631;-47
2023/08/03 04:42:20;;;;;;;2.63;1.10;;;16.20;99.90;;;;;;5115199;28;20857;-42
2023/08/03 04:44:46;;;;;;;4.77;1.33;;;16.10;1.00;;;;;;5114136;28;20213;-42
2023/08/03 04:47:12;;;;;;;4.77;0.97;;;16.10;1.00;;;;;;5112995;28;20317;-43
2023/08/03 04:49:37;;;;;;;3.93;1.00;;;16.10;1.00;;;;;;5113940;28;20425;-45
2023/08/03 04:52:03;;;;;;;5.13;1.20;;;16.20;1.00;;;;;;5097435;28;20272;-43
2023/08/03 04:54:29;;;;;;;4.13;1.23;;;16.10;99.90;;;;;;5114716;28;20264;-43
2023/08/03 04:56:55;;;;;;;10.00;1.47;;;16.20;99.90;;;;;;5113739;28;20430;-43
2023/08/03 04:59:20;;;;;;;3.07;0.87;;;16.20;99.90;;;;;;5113455;28;20198;-43
2023/08/03 05:01:46;;;;;;;4.00;1.50;;;16.20;99.90;;;;;;5114478;28;20237;-42
2023/08/03 05:04:11;;;;;;;2.53;1.10;;;16.20;99.90;;;;;;5114505;28;20218;-44
2023/08/03 05:06:37;;;;;;;4.73;1.00;;;16.10;1.00;;;;;;5115920;28;20184;-44
2023/08/03 05:09:03;;;;;;;4.40;1.43;;;16.10;1.00;;;;;;5115908;28;20426;-45
2023/08/03 05:11:28;;;;;;;5.13;2.60;;;16.10;1.00;;;;;;5115584;28;20549;-44
2023/08/03 05:13:54;;;;;;;1.87;1.33;;;16.10;2.70;;;;;;5116267;28;20226;-43
2023/08/03 05:16:24;;;;;;;4.03;1.87;;;16.20;40.10;;;;;;5115786;28;20187;-44
2023/08/03 05:18:50;;;;;;;2.67;1.30;;;16.10;99.90;;;;;;5114772;28;20508;-45
2023/08/03 05:21:15;;;;;;;2.67;0.70;;;16.10;99.90;;;;;;5114391;28;20434;-44
2023/08/03 05:23:41;;;;;;;3.57;1.03;;;16.20;99.90;;;;;;5113207;28;20465;-44
2023/08/03 05:26:07;;;;;;;5.23;1.27;;;16.10;99.90;;;;;;5099940;28;20571;-44
2023/08/03 05:28:32;;;;;;;5.73;1.57;;;16.00;99.90;;;;;;5094286;28;20173;-43
2023/08/03 05:30:58;;;;;;;4.80;1.20;;;16.00;1.00;;;;;;5093393;28;20212;-44
2023/08/03 05:33:23;;;;;;;3.27;1.63;;;16.00;1.00;;;;;;5095133;28;20484;-43
2023/08/03 05:35:49;;;;;;;3.67;1.10;;;16.00;1.00;;;;;;5094980;28;20462;-43
2023/08/03 05:38:15;;;;;;;3.53;1.23;;;16.00;3.40;;;;;;5076507;28;20184;-45
2023/08/03 05:40:41;;;;;;;3.57;1.43;;;16.00;96.90;;;;;;5093589;28;20180;-46
2023/08/03 05:43:14;;;;;;;4.47;1.57;;;16.00;99.90;;;;;;5093210;28;20755;-45
2023/08/03 05:45:43;;;;;;;6.43;1.87;;;16.10;21.90;;;;;;5113317;28;20631;-42
2023/08/03 05:48:17;;;;;;;3.37;1.27;;;16.10;1.00;;;;;;5116216;28;20524;-45
2023/08/03 05:50:45;;;;;;;3.20;1.17;;;16.10;1.00;;;;;;5116146;28;20425;-45
2023/08/03 05:53:11;;;;;;;8.70;1.50;;;16.20;1.00;;;;;;5114330;28;20449;-47
2023/08/03 05:55:38;;;;;;;8.40;2.60;;;16.30;99.90;;;;;;5114877;28;20919;-44
2023/08/03 05:58:04;;;;;;;3.00;1.20;;;16.20;99.90;;;;;;5116278;28;20892;-42
2023/08/03 06:00:30;;;;;;;6.97;1.80;;;16.50;2.40;;;;;;5096239;28;20458;-40
2023/08/03 06:02:57;;;;;;;4.63;1.70;;;16.70;99.90;;;;;;5094356;28;20464;-43
2023/08/03 06:05:38;;;;;;;3.67;1.03;;;16.90;99.90;;;;;;5074618;28;20188;-41
2023/08/03 06:08:21;;;;;;;3.53;1.10;;;17.10;1.00;;;;;;5091790;28;20689;-41
2023/08/03 06:10:54;;;;;;;4.93;1.23;;;17.20;99.90;;;;;;5106672;28;20422;-41
2023/08/03 06:13:31;;;;;;;2.90;1.13;;;17.30;99.90;;;;;;5111640;28;20507;-43
2023/08/03 06:15:57;;;;;;;2.97;0.90;;;17.40;99.90;;;;;;5072545;28;20438;-44
2023/08/03 06:18:22;;;;;;;3.63;1.00;;;17.30;99.90;;;;;;5092461;28;20427;-40
2023/08/03 06:20:50;;;;;;;3.40;1.10;;;17.40;1.00;;;;;;5084461;28;20179;-41
2023/08/03 06:23:20;;;;;;;4.57;1.43;;;17.60;1.00;;;;;;5109917;28;20199;-44
2023/08/03 06:25:47;;;;;;;4.27;1.47;;;17.70;99.90;;;;;;5093941;28;20414;-41
2023/08/03 06:28:17;;;;;;;2.57;1.00;;;17.60;99.90;;;;;;5076359;28;20999;-42
2023/08/03 06:30:44;;;;;;;6.10;1.40;;;17.70;99.90;;;;;;5094212;28;20704;-41
2023/08/03 06:33:12;;;;;;;3.37;1.27;;;18.00;34.40;;;;;;5094298;28;20473;-42
2023/08/03 06:35:40;;;;;;;3.27;1.33;;;18.10;1.00;;;;;;5093189;28;20427;-43
2023/08/03 06:38:14;;;;;;;2.63;1.00;;;18.10;1.00;;;;;;5094369;28;20730;-41
2023/08/03 06:40:41;;;;;;;3.13;1.10;;;17.90;1.00;;;;;;5075983;28;20498;-42
2023/08/03 06:43:08;;;;;;;4.10;1.47;;;18.00;1.00;;;;;;5076189;28;20480;-44
2023/08/03 06:45:33;;;;;;;4.23;1.10;;;18.00;99.90;;;;;;5075822;28;20488;-42
2023/08/03 06:48:00;;;;;;;3.23;1.30;;;17.90;99.90;;;;;;5092039;28;20446;-45
2023/08/03 06:50:27;;;;;;;2.57;1.00;;;17.90;99.90;;;;;;5099238;28;20257;-44
2023/08/03 06:52:53;;;;;;;2.60;1.00;;;17.90;99.90;;;;;;5093148;28;20417;-44
2023/08/03 06:55:19;;;;;;;3.00;1.23;;;17.90;99.90;;;;;;5112190;28;20414;-44
2023/08/03 06:57:45;;;;;;;4.57;1.37;;;17.90;99.90;;;;;;5102608;28;20195;-46
2023/08/03 07:00:14;;;;;;;3.87;1.20;;;17.90;99.90;;;;;;5073570;28;20230;-44
2023/08/03 07:02:41;;;;;;;3.33;1.10;;;17.90;99.90;;;;;;5113229;28;20522;-45
2023/08/03 07:05:07;;;;;;;3.27;1.27;;;17.90;99.90;;;;;;5111806;28;20908;-46
2023/08/03 07:07:33;;;;;;;3.73;1.37;;;18.00;99.90;;;;;;5100679;28;20426;-44
2023/08/03 07:09:59;;;;;;;3.40;1.00;;;18.00;99.90;;;;;;5091651;28;20193;-44
2023/08/03 07:12:26;;;;;;;2.23;0.90;;;18.20;99.90;;;;;;5106068;28;20579;-43
2023/08/03 07:14:52;;;;;;;4.77;1.17;;;18.20;99.90;;;;;;5111838;28;20586;-44
2023/08/03 07:17:17;;;;;;;3.17;1.20;;;18.30;99.90;;;;;;5107473;28;20540;-44
2023/08/03 07:19:45;;;;;;;4.60;1.40;;;18.40;99.90;;;;;;5092848;28;20173;-46
2023/08/03 07:22:10;;;;;;;5.47;1.13;;;18.50;99.90;;;;;;5074720;28;20359;-45
2023/08/03 07:24:36;;;;;;;3.13;1.07;;;18.50;99.90;;;;;;5092904;28;21039;-47
2023/08/03 07:27:02;;;;;;;2.67;1.00;;;18.60;99.90;;;;;;5091332;28;20184;-44
2023/08/03 07:29:28;;;;;;;3.20;1.10;;;18.70;99.90;;;;;;5089162;28;20184;-44
2023/08/03 07:31:54;;;;;;;6.07;1.93;;;18.60;99.90;;;;;;5092850;28;20526;-43
2023/08/03 07:34:20;;;;;;;2.53;1.10;;;18.70;99.90;;;;;;5113857;28;20417;-43
2023/08/03 07:36:46;;;;;;;4.77;1.33;;;18.80;99.90;;;;;;5111597;28;20475;-43
2023/08/03 07:39:12;;;;;;;2.70;1.20;;;18.70;99.90;;;;;;5092565;28;20461;-45
2023/08/03 07:41:38;;;;;;;4.83;1.20;;;18.70;99.90;;;;;;5109951;28;20206;-45
2023/08/03 07:44:04;;;;;;;3.10;0.90;;;18.80;99.90;;;;;;5074367;28;20462;-45
2023/08/03 07:46:30;;;;;;;3.90;1.20;;;18.80;99.90;;;;;;5090379;28;20212;-45
2023/08/03 07:48:59;;;;;;;4.87;1.20;;;18.90;99.90;;;;;;5069351;28;20197;-45
2023/08/03 07:51:24;;;;;;;2.43;1.47;;;18.90;99.90;;;;;;5090693;28;20434;-43
2023/08/03 07:53:51;;;;;;;2.57;1.10;;;18.80;99.90;;;;;;5092264;28;20824;-45
2023/08/03 07:56:19;;;;;;;3.10;1.00;;;18.90;99.90;;;;;;5056064;28;20189;-46
2023/08/03 07:58:46;;;;;;;3.10;1.10;;;19.10;99.90;;;;;;5109405;28;20456;-44
2023/08/03 08:01:12;;;;;;;2.37;1.00;;;19.50;99.90;;;;;;5093480;28;20481;-44
2023/08/03 08:03:38;;;;;;;3.40;0.90;;;19.30;99.90;;;;;;5075797;28;20531;-44
2023/08/03 08:06:18;;;;;;;4.90;0.90;;;19.30;99.90;;;;;;5095482;28;20464;-44
2023/08/03 08:08:45;;;;;;;6.00;1.20;;;19.40;99.90;;;;;;5097147;28;20528;-46
2023/08/03 08:11:12;;;;;;;1.37;0.83;;;19.20;99.90;;;;;;5096596;28;20632;-47
2023/08/03 08:13:37;;;;;;;3.90;1.17;;;19.10;99.90;;;;;;5097392;28;20406;-46
2023/08/03 08:16:05;;;;;;;1.87;1.00;;;19.10;99.90;;;;;;5095799;28;20449;-45
2023/08/03 08:18:32;;;;;;;4.20;1.10;;;19.30;99.90;;;;;;5097216;28;20279;-45
2023/08/03 08:21:03;;;;;;;4.00;1.00;;;19.50;99.90;;;;;;5096481;28;20871;-43
2023/08/03 08:23:30;;;;;;;2.87;1.17;;;19.40;99.90;;;;;;5096843;28;20921;-43
2023/08/03 08:25:56;;;;;;;4.10;1.00;;;19.60;99.90;;;;;;5096406;28;20468;-43
2023/08/03 08:28:22;;;;;;;3.03;1.20;;;19.50;99.90;;;;;;5099451;28;20506;-45
2023/08/03 08:30:48;;;;;;;3.00;1.30;;;19.70;98.40;;;;;;5100716;28;20723;-43
2023/08/03 08:33:25;;;;;;;2.03;0.77;;;19.80;90.80;;;;;;5094195;28;20478;-44
2023/08/03 08:35:51;;;;;;;2.63;1.30;;;20.00;92.10;;;;;;5087396;28;20536;-46
2023/08/03 08:38:17;;;;;;;3.13;1.03;;;19.90;69.80;;;;;;5116819;28;20521;-45
2023/08/03 08:40:44;;;;;;;6.63;1.00;;;20.00;57.70;;;;;;5116200;28;20184;-46
2023/08/03 08:43:10;;;;;;;3.83;0.87;;;20.00;35.30;;;;;;5097967;28;20200;-45
2023/08/03 08:45:36;;;;;;;2.27;0.80;;;19.80;39.60;;;;;;5077595;28;20439;-46
2023/08/03 08:48:03;;;;;;;2.43;0.93;;;19.70;29.70;;;;;;5094773;28;20438;-44
2023/08/03 08:50:29;;;;;;;3.70;1.00;;;19.70;39.80;;;;;;5075580;28;20438;-44
2023/08/03 08:52:56;;;;;;;1.60;0.50;;;19.70;35.60;;;;;;5095204;28;20751;-43
2023/08/03 08:55:29;;;;;;;6.90;1.00;;;19.80;36.70;;;;;;5096471;28;20820;-45
2023/08/03 08:57:56;;;;;;;2.70;0.80;;;19.60;28.10;;;;;;5077443;28;20732;-45
2023/08/03 09:00:25;;;;;;;2.30;0.80;;;19.80;45.10;;;;;;5077593;28;20426;-43
2023/08/03 09:02:56;;;;;;;1.47;0.67;;;20.00;29.50;;;;;;5077277;28;20530;-45
2023/08/03 09:05:24;;;;;;;2.43;1.07;;;20.00;32.70;;;;;;5106807;28;20465;-43
2023/08/03 09:08:02;;;;;;;1.97;0.60;;;20.10;26.40;;;;;;5116494;28;20482;-43
2023/08/03 09:10:29;;;;;;;1.60;0.63;;;20.20;22.10;;;;;;5098255;28;20425;-46
2023/08/03 09:12:59;;;;;;;2.93;0.80;;;20.50;20.90;;;;;;5077227;28;20830;-43
2023/08/03 09:15:40;;;;;;;2.30;0.80;;;20.70;10.50;;;;;;5092930;28;20426;-45
2023/08/03 09:18:07;;;;;;;2.20;0.73;;;20.90;5.10;;;;;;5102742;28;20487;-44
2023/08/03 09:20:33;;;;;;;2.20;0.60;;;20.80;1.00;;;;;;5111482;28;20454;-45
2023/08/03 09:23:00;;;;;;;2.63;0.80;;;20.60;1.00;;;;;;5115488;28;20406;-43
2023/08/03 09:25:25;;;;;;;1.87;0.77;;;20.70;1.00;;;;;;5072296;28;20431;-43
2023/08/03 09:27:54;;;;;;;2.30;0.70;;;20.80;1.00;;;;;;5093073;28;20426;-43
2023/08/03 09:30:20;;;;;;;2.60;0.80;;;21.10;1.00;;;;;;5079566;28;20187;-43
2023/08/03 09:32:46;;;;;;;1.30;0.50;;;21.40;1.00;;;;;;5115745;28;20478;-44
2023/08/03 09:35:20;;;;;;;2.70;1.00;;;21.80;1.00;;;;;;5115348;28;20433;-43
2023/08/03 09:37:48;;;;;;;2.03;0.87;;;22.10;1.00;;;;;;5115477;28;20866;-46
2023/08/03 09:40:15;;;;;;;2.30;1.00;;;22.40;1.00;;;;;;5108124;28;20426;-46
2023/08/03 09:42:41;;;;;;;2.80;0.73;;;22.50;1.00;;;;;;5077360;28;20445;-45
2023/08/03 09:45:07;;;;;;;2.03;0.97;;;21.80;1.00;;;;;;5089680;28;20473;-47
2023/08/03 09:47:36;;;;;;;1.97;0.73;;;21.60;1.00;;;;;;5114412;28;20437;-46
2023/08/03 09:50:02;;;;;;;3.33;0.77;;;22.00;1.00;;;;;;5110297;28;20419;-46
2023/08/03 09:52:29;;;;;;;1.60;0.60;;;22.50;1.00;;;;;;5094841;28;20419;-44
2023/08/03 09:55:12;;;;;;;1.80;0.67;;;22.60;1.00;;;;;;5083242;28;20490;-45
2023/08/03 09:57:40;;;;;;;2.50;1.00;;;22.10;1.00;;;;;;5113099;28;20460;-44
2023/08/03 10:00:08;;;;;;;3.17;0.60;;;22.10;1.00;;;;;;5114654;28;20657;-45
2023/08/03 10:02:54;;;;;;;2.57;1.10;;;22.20;1.00;;;;;;5093885;28;20453;-43
2023/08/03 10:05:21;;;;;;;1.57;0.90;;;22.20;1.00;;;;;;5084157;28;20797;-47
2023/08/03 10:07:55;;;;;;;2.20;0.70;;;21.50;1.00;;;;;;5096016;28;20431;-45
2023/08/03 10:10:22;;;;;;;1.53;0.60;;;21.30;1.00;;;;;;5115716;28;20463;-43
2023/08/03 10:12:53;;;;;;;2.73;0.83;;;21.30;1.00;;;;;;5094295;28;20461;-44
2023/08/03 10:15:19;;;;;;;1.90;0.70;;;21.40;1.00;;;;;;5096730;28;20502;-44
2023/08/03 10:17:46;;;;;;;1.73;0.70;;;21.30;1.00;;;;;;5097249;28;20525;-45
2023/08/03 10:20:12;;;;;;;1.70;0.70;;;21.50;1.00;;;;;;5098439;28;20184;-44
2023/08/03 10:22:38;;;;;;;1.97;0.50;;;21.50;1.00;;;;;;5064801;28;20422;-47
2023/08/03 10:25:17;;;;;;;1.43;0.80;;;21.50;1.00;;;;;;5093373;28;20470;-47
2023/08/03 10:28:13;;;;;;;1.93;0.60;;;21.60;1.00;;;;;;5093308;28;20176;-43
2023/08/03 10:31:04;;;;;;;2.07;0.80;;;21.50;1.00;;;;;;5074815;28;20512;-45
2023/08/03 10:33:51;;;;;;;6.00;0.73;;;21.30;1.00;;;;;;5092094;28;20477;-45
2023/08/03 10:36:33;;;;;;;1.40;0.67;;;20.90;1.00;;;;;;5113493;28;20520;-44
2023/08/03 10:39:00;;;;;;;3.10;0.83;;;21.20;1.00;;;;;;5114662;28;20694;-44
2023/08/03 10:41:27;;;;;;;2.20;0.80;;;21.30;1.00;;;;;;5096473;28;20429;-43
2023/08/03 10:44:05;;;;;;;2.70;0.73;;;22.00;1.00;;;;;;5113422;28;20889;-45
2023/08/03 10:46:38;;;;;;;3.90;0.90;;;21.90;1.00;;;;;;5094938;28;20417;-43
2023/08/03 10:49:22;;;;;;;1.40;0.60;;;22.00;1.00;;;;;;5094652;28;20872;-45
2023/08/03 10:51:54;;;;;;;2.10;0.83;;;22.00;1.00;;;;;;5093107;28;20429;-45
2023/08/03 10:54:30;;;;;;;2.90;0.90;;;22.00;1.00;;;;;;5096382;28;20454;-45
2023/08/03 10:57:04;;;;;;;2.97;1.27;;;21.80;1.00;;;;;;5073888;28;20507;-47
2023/08/03 10:59:36;;;;;;;1.63;0.70;;;22.00;1.00;;;;;;5112701;28;20444;-45
2023/08/03 11:02:31;;;;;;;1.73;0.60;;;22.00;1.00;;;;;;5111631;28;20406;-44
2023/08/03 11:04:58;;;;;;;2.57;0.70;;;22.40;1.00;;;;;;5092666;28;20523;-44
2023/08/03 11:07:42;;;;;;;1.53;0.60;;;23.40;1.00;;;;;;5091180;28;20413;-46
2023/08/03 11:10:15;;;;;;;1.87;0.80;;;24.30;1.00;;;;;;5093180;28;20444;-48
2023/08/03 11:12:43;;;;;;;2.20;0.63;;;24.50;1.00;;;;;;5092376;28;20418;-44
2023/08/03 11:15:09;;;;;;;3.07;0.80;;;24.70;1.00;;;;;;5078456;28;21071;-48
2023/08/03 11:17:36;;;;;;;1.37;0.60;;;24.90;1.00;;;;;;5072391;28;20438;-45
2023/08/03 11:20:06;;;;;;;2.47;0.90;;;25.20;1.00;;;;;;5093082;28;20425;-45
2023/08/03 11:22:32;;;;;;;2.80;1.00;;;25.20;1.00;;;;;;5112591;28;21052;-46
2023/08/03 11:25:00;;;;;;;1.83;0.73;;;24.50;1.00;;;;;;5105381;28;20474;-45
2023/08/03 11:27:26;;;;;;;1.83;0.60;;;23.90;1.00;;;;;;5093066;28;20718;-45
2023/08/03 11:29:52;;;;;;;1.93;0.70;;;23.50;1.00;;;;;;5106159;28;20430;-46
2023/08/03 11:32:29;;;;;;;1.60;0.60;;;23.20;1.00;;;;;;5112654;28;20461;-46
2023/08/03 11:35:14;;;;;;;3.50;0.90;;;23.10;1.00;;;;;;5111948;28;20827;-46
2023/08/03 11:37:40;;;;;;;1.60;0.70;;;22.80;1.00;;;;;;5078632;28;20593;-47
2023/08/03 11:40:08;;;;;;;1.43;0.50;;;22.80;1.00;;;;;;5106777;28;20719;-46
2023/08/03 11:42:37;;;;;;;2.33;0.70;;;23.30;1.00;;;;;;5117056;28;20175;-46
2023/08/03 11:45:03;;;;;;;1.50;0.60;;;24.50;1.00;;;;;;5117256;28;20842;-47
2023/08/03 11:47:46;;;;;;;2.33;0.50;;;24.60;1.00;;;;;;5117470;28;20436;-45
2023/08/03 11:50:13;;;;;;;2.70;0.60;;;24.20;1.00;;;;;;5109516;28;20253;-47
2023/08/03 11:52:38;;;;;;;2.23;0.80;;;24.60;1.00;;;;;;5096658;28;20413;-45
2023/08/03 11:55:04;;;;;;;2.50;0.80;;;25.20;1.00;;;;;;5109541;28;20816;-45
2023/08/03 12:00:15;;;;;;;1.20;0.60;;;24.40;1.00;;;;;;5116944;28;20569;-47
2023/08/03 12:02:44;;;;;;;2.30;0.70;;;25.50;1.00;;;;;;5118308;28;20746;-46
2023/08/03 12:05:11;;;;;;;2.83;0.70;;;26.10;1.00;;;;;;5115707;28;20551;-47
2023/08/03 12:07:37;;;;;;;3.13;0.80;;;25.90;1.00;;;;;;5117654;28;20486;-46
2023/08/03 12:10:11;;;;;;;2.20;0.60;;;26.10;1.00;;;;;;5098911;28;20453;-44
2023/08/03 12:12:39;;;;;;;1.50;0.70;;;25.60;1.00;;;;;;5099221;28;20273;-49
2023/08/03 12:15:06;;;;;;;1.70;0.70;;;25.40;1.00;;;;;;5077453;28;20445;-46
2023/08/03 12:17:32;;;;;;;2.17;1.13;;;24.20;1.00;;;;;;5094931;28;20430;-46
2023/08/03 12:19:57;;;;;;;2.33;0.90;;;22.80;1.00;;;;;;5094030;28;20406;-45
2023/08/03 12:22:23;;;;;;;2.40;0.80;;;21.80;1.00;;;;;;5106734;28;20555;-45
2023/08/03 12:24:48;;;;;;;2.30;1.20;;;21.20;1.00;;;;;;5115584;28;20284;-45
2023/08/03 12:27:14;;;;;;;3.00;0.90;;;20.90;1.00;;;;;;5098098;28;20176;-45
2023/08/03 12:29:39;;;;;;;1.57;0.70;;;21.20;1.00;;;;;;5095486;28;20209;-45
2023/08/03 12:32:06;;;;;;;1.87;0.70;;;21.80;1.00;;;;;;5078084;28;20288;-47
2023/08/03 12:34:31;;;;;;;2.47;0.70;;;22.00;1.00;;;;;;5095941;28;20196;-43
2023/08/03 12:36:57;;;;;;;2.80;1.50;;;22.00;1.00;;;;;;5096129;28;20515;-44
2023/08/03 12:39:23;;;;;;;3.33;0.93;;;21.90;1.00;;;;;;5094936;28;20195;-45
2023/08/03 12:41:48;;;;;;;2.20;0.70;;;22.00;1.00;;;;;;5095754;28;20196;-44
2023/08/03 12:44:15;;;;;;;1.93;1.07;;;22.00;1.00;;;;;;5095143;28;20211;-46
2023/08/03 12:46:41;;;;;;;4.10;2.33;;;21.70;1.00;;;;;;5116178;28;20179;-44
2023/08/03 12:49:06;;;;;;;2.07;0.90;;;21.40;1.00;;;;;;5099667;28;20545;-46
2023/08/03 12:51:35;;;;;;;2.17;0.83;;;21.30;1.00;;;;;;5116912;28;20266;-45
2023/08/03 12:54:02;;;;;;;1.57;0.63;;;22.40;1.00;;;;;;5116130;28;20274;-45